Time;durP1;ratioP1;P1;durP2;ratioP2;P2;SDS_P1;SDS_P2;PMS_P1;PMS_P2;Temp;Humidity;BMP_temperature;BMP_pressure;BME280_temperature;BME280_humidity;BME280_pressure;Samples;Min_cycle;Max_cycle;Signal;HPM_P1;HPM_P2
2022/10/11 00:10:23;;;;;;;14.90;8.20;;;;;;;12.35;81.50;100428.94;639781;1288;138822;-81
2022/10/11 00:25:27;;;;;;;12.10;8.30;;;;;;;12.36;81.63;100437.98;640299;1293;140073;-81
2022/10/11 00:40:30;;;;;;;14.00;8.20;;;;;;;12.28;82.46;100437.97;640131;1288;139904;-81
2022/10/11 00:55:39;;;;;;;17.10;9.50;;;;;;;12.21;82.79;100434.78;639040;1290;1194973;-81
2022/10/11 01:10:42;;;;;;;14.10;10.40;;;;;;;12.00;84.90;100421.51;641303;1290;140182;-81
2022/10/11 01:26:03;;;;;;;14.70;9.40;;;;;;;11.85;87.73;100420.37;641029;1291;141971;-81
2022/10/11 01:41:15;;;;;;;15.20;9.40;;;;;;;11.85;88.25;100415.41;640749;1286;139363;-81
2022/10/11 01:56:40;;;;;;;19.00;10.10;;;;;;;11.74;90.38;100411.03;640312;1290;141148;-81
2022/10/11 02:11:44;;;;;;;19.00;14.10;;;;;;;11.61;91.76;100403.95;640345;1310;139345;-81
2022/10/11 02:26:53;;;;;;;18.50;10.10;;;;;;;11.59;91.55;100409.21;640226;1294;139664;-81
2022/10/11 02:42:01;;;;;;;19.20;11.30;;;;;;;11.40;92.02;100424.36;640367;1294;139824;-81
2022/10/11 02:57:04;;;;;;;21.80;11.00;;;;;;;11.23;93.44;100447.09;640316;1294;139036;-81
2022/10/11 03:12:07;;;;;;;22.70;11.90;;;;;;;11.34;94.99;100447.55;640415;1304;139112;-81
2022/10/11 03:27:10;;;;;;;21.30;12.80;;;;;;;11.40;97.50;100447.70;640012;1301;141053;-81
2022/10/11 03:42:13;;;;;;;25.50;13.10;;;;;;;11.56;98.26;100465.20;639802;1291;139525;-81
2022/10/11 03:57:17;;;;;;;22.90;15.00;;;;;;;11.71;99.46;100473.98;639836;1295;139194;-81
2022/10/11 04:12:20;;;;;;;29.90;14.90;;;;;;;11.68;100.00;100497.90;640868;1286;140322;-81
2022/10/11 04:27:26;;;;;;;27.20;16.00;;;;;;;11.64;100.00;100512.98;641426;1295;140140;-82
2022/10/11 04:42:29;;;;;;;31.50;18.80;;;;;;;11.58;100.00;100520.55;640230;1290;139767;-81
2022/10/11 04:57:32;;;;;;;28.20;15.90;;;;;;;11.49;100.00;100542.89;641109;1288;141100;-82
2022/10/11 05:12:35;;;;;;;34.80;19.00;;;;;;;11.42;100.00;100554.15;640603;1294;140385;-82
2022/10/11 05:27:39;;;;;;;34.90;18.10;;;;;;;11.37;100.00;100574.58;640695;1288;141095;-80
2022/10/11 05:42:42;;;;;;;36.40;19.10;;;;;;;11.46;100.00;100596.17;640303;1290;140805;-82
2022/10/11 05:57:45;;;;;;;34.10;18.50;;;;;;;11.66;100.00;100618.41;641437;1288;142021;-81
2022/10/11 06:12:48;;;;;;;33.00;15.90;;;;;;;11.82;100.00;100648.91;641223;1295;139801;-82
2022/10/11 06:27:52;;;;;;;18.90;11.30;;;;;;;12.09;100.00;100680.81;640328;1297;141281;-82
2022/10/11 06:42:55;;;;;;;23.40;10.80;;;;;;;12.84;100.00;100702.88;640289;1297;140032;-81
2022/10/11 06:57:59;;;;;;;18.80;8.50;;;;;;;13.44;100.00;100727.45;640336;1295;140670;-83
2022/10/11 07:13:02;;;;;;;26.30;10.80;;;;;;;13.88;100.00;100746.09;642400;1289;139434;-83
2022/10/11 07:28:06;;;;;;;10.90;5.50;;;;;;;14.63;97.93;100772.52;661335;1310;139978;-83
2022/10/11 07:43:11;;;;;;;16.80;5.60;;;;;;;15.05;94.06;100796.27;642647;1288;139421;-82
2022/10/11 07:58:14;;;;;;;10.60;5.30;;;;;;;15.14;90.97;100817.88;647472;1295;140365;-83
2022/10/11 08:13:17;;;;;;;12.80;4.90;;;;;;;15.04;88.89;100843.23;640362;1294;141341;-82
2022/10/11 08:28:20;;;;;;;11.10;3.10;;;;;;;15.50;85.33;100855.80;641087;1295;139918;-83
2022/10/11 08:43:41;;;;;;;7.70;3.30;;;;;;;16.44;81.89;100869.63;641175;1295;140772;-82
2022/10/11 08:58:56;;;;;;;55.50;17.50;;;;;;;16.88;76.24;100887.80;641197;1295;139482;-82
2022/10/11 09:14:11;;;;;;;8.70;2.80;;;;;;;16.96;70.14;100906.95;641620;1296;140523;-83
2022/10/11 09:29:49;;;;;;;12.00;4.50;;;;;;;17.36;68.43;100927.77;641530;1289;138736;-82
2022/10/11 09:44:56;;;;;;;9.70;3.20;;;;;;;16.86;67.96;100946.31;640764;1294;138655;-82
2022/10/11 10:00:32;;;;;;;9.00;3.00;;;;;;;16.98;67.34;100954.20;640782;1299;139273;-82
2022/10/11 10:15:44;;;;;;;6.20;2.30;;;;;;;17.64;66.04;100961.82;641372;1287;139393;-82
2022/10/11 10:30:57;;;;;;;7.90;2.10;;;;;;;18.20;64.18;100972.39;641066;1292;139701;-83
2022/10/11 10:46:16;;;;;;;7.30;2.30;;;;;;;18.94;62.00;100981.45;640874;1302;139806;-82
2022/10/11 11:01:29;;;;;;;8.20;3.50;;;;;;;18.07;61.10;100991.54;643356;1295;140366;-82
2022/10/11 11:16:37;;;;;;;8.90;2.20;;;;;;;18.00;61.12;100996.49;643207;1296;139727;-82
2022/10/11 11:32:04;;;;;;;15.50;7.10;;;;;;;18.12;59.68;101002.48;643197;1303;140451;-82
2022/10/11 11:47:26;;;;;;;8.70;2.70;;;;;;;17.43;60.37;101011.23;641020;1304;139440;-83
2022/10/11 12:02:58;;;;;;;16.70;6.90;;;;;;;17.51;60.62;101006.34;639963;1288;139892;-83
2022/10/11 12:18:15;;;;;;;6.70;3.10;;;;;;;17.47;60.02;101014.86;641585;1294;139220;-83
2022/10/11 12:33:30;;;;;;;6.70;1.90;;;;;;;17.95;58.32;101014.92;640868;1297;140042;-84
2022/10/11 12:48:55;;;;;;;9.60;3.40;;;;;;;19.81;55.38;101017.88;639802;1305;1091614;-83
2022/10/11 13:04:10;;;;;;;9.10;2.00;;;;;;;20.19;52.71;101025.54;640796;1305;140897;-81
2022/10/11 13:19:15;;;;;;;20.80;8.40;;;;;;;20.59;51.17;101033.56;640487;1298;139463;-83
2022/10/11 13:34:18;;;;;;;6.80;2.60;;;;;;;26.68;46.87;101029.96;641653;1310;139646;-82
2022/10/11 13:49:38;;;;;;;7.50;1.80;;;;;;;28.94;40.83;101033.25;640682;1296;141029;-82
2022/10/11 14:04:42;;;;;;;6.50;2.30;;;;;;;28.12;39.61;101037.39;640777;1292;140220;-81
2022/10/11 14:20:01;;;;;;;25.70;15.00;;;;;;;28.23;39.22;101043.52;642315;1294;139685;-83
2022/10/11 14:35:24;;;;;;;8.40;2.90;;;;;;;25.64;41.07;101041.42;640688;1294;140010;-82
2022/10/11 14:50:52;;;;;;;13.20;9.00;;;;;;;24.80;42.35;101039.52;641108;1294;140483;-82
2022/10/11 15:05:55;;;;;;;20.70;12.70;;;;;;;20.71;45.79;101055.77;641218;1294;140975;-81
2022/10/11 15:20:59;;;;;;;19.20;9.70;;;;;;;18.38;50.85;101074.64;640935;1296;140577;-81
2022/10/11 15:36:06;;;;;;;19.90;8.20;;;;;;;18.12;52.86;101085.66;640811;1301;139753;-82
2022/10/11 15:51:10;;;;;;;72.90;40.20;;;;;;;17.67;54.11;101100.48;640814;1289;140248;-81
2022/10/11 16:06:15;;;;;;;31.10;17.80;;;;;;;16.78;55.59;101116.53;643348;1292;140330;-82
2022/10/11 16:21:20;;;;;;;300.50;132.50;;;;;;;15.65;58.37;101130.52;640570;1294;139691;-83
2022/10/11 16:36:39;;;;;;;38.90;21.30;;;;;;;15.27;59.38;101144.17;640173;1303;139622;-81
2022/10/11 16:51:43;;;;;;;147.80;54.80;;;;;;;14.71;60.71;101155.00;640756;1287;140369;-81
2022/10/11 17:06:46;;;;;;;65.90;27.00;;;;;;;13.96;62.28;101160.98;641723;1296;141273;-81
2022/10/11 17:21:50;;;;;;;100.50;41.30;;;;;;;13.33;63.98;101165.58;641697;1296;139841;-81
2022/10/11 17:36:55;;;;;;;122.20;45.90;;;;;;;12.52;66.66;101171.38;640061;1294;140835;-83
2022/10/11 17:52:00;;;;;;;80.90;35.60;;;;;;;12.13;67.80;101182.21;640309;1295;139344;-82
2022/10/11 18:07:03;;;;;;;104.40;44.40;;;;;;;11.76;69.72;101184.83;640711;1294;140992;-81
2022/10/11 18:22:07;;;;;;;50.60;24.10;;;;;;;11.72;69.35;101192.49;641120;1286;139932;-81
2022/10/11 18:37:12;;;;;;;71.00;32.00;;;;;;;11.55;69.70;101192.38;640351;1295;140971;-81
2022/10/11 18:52:17;;;;;;;66.50;29.40;;;;;;;11.20;69.92;101202.44;641032;1288;139013;-81
2022/10/11 19:07:22;;;;;;;66.10;29.50;;;;;;;10.85;70.98;101216.23;641610;1285;139839;-82
2022/10/11 19:22:26;;;;;;;82.10;36.20;;;;;;;10.67;71.60;101220.02;641294;1290;139043;-82
2022/10/11 19:37:32;;;;;;;51.10;21.90;;;;;;;10.35;72.10;101227.70;641132;1306;140569;-83
2022/10/11 19:52:36;;;;;;;48.10;22.30;;;;;;;10.07;72.41;101233.38;639882;1310;139534;-82
2022/10/11 20:07:46;;;;;;;41.30;17.10;;;;;;;9.88;73.76;101230.14;640870;1310;140379;-82
2022/10/11 20:22:52;;;;;;;29.00;12.30;;;;;;;9.86;74.76;101240.64;642909;1302;139218;-82
2022/10/11 20:37:56;;;;;;;21.00;10.60;;;;;;;9.84;74.86;101239.69;643257;1290;140490;-82
2022/10/11 20:53:00;;;;;;;38.90;13.50;;;;;;;9.83;75.29;101240.63;642837;1286;140644;-80
2022/10/11 21:08:03;;;;;;;38.60;15.10;;;;;;;9.67;75.13;101240.68;640583;1295;139213;-83
2022/10/11 21:23:07;;;;;;;38.50;14.40;;;;;;;9.38;75.53;101240.54;640961;1292;140105;-83
2022/10/11 21:38:11;;;;;;;29.00;13.10;;;;;;;9.08;75.87;101245.21;640527;1288;140351;-81
2022/10/11 21:53:15;;;;;;;37.40;14.70;;;;;;;8.87;76.72;101251.64;640363;1296;140014;-81
2022/10/11 22:08:19;;;;;;;22.80;10.10;;;;;;;8.79;77.77;101259.61;640501;1295;140681;-82
2022/10/11 22:23:22;;;;;;;26.20;10.60;;;;;;;8.54;79.24;101263.17;642037;1287;140097;-81
2022/10/11 22:38:26;;;;;;;22.70;10.20;;;;;;;8.63;79.38;101255.44;660201;1302;140343;-82
2022/10/11 22:53:29;;;;;;;24.40;10.50;;;;;;;8.51;80.32;101256.00;640297;1287;141598;-81
2022/10/11 23:08:32;;;;;;;23.90;10.10;;;;;;;8.31;81.75;101261.98;640868;1295;139999;-82
2022/10/11 23:23:38;;;;;;;31.50;11.50;;;;;;;8.17;83.05;101267.04;639894;1294;139495;-82
2022/10/11 23:38:41;;;;;;;28.50;12.20;;;;;;;7.93;84.80;101268.67;640179;1303;141122;-81
2022/10/11 23:53:44;;;;;;;28.60;11.90;;;;;;;7.89;85.54;101266.81;639609;1295;139268;-82
